Time;durP1;ratioP1;P1;durP2;ratioP2;P2;SDS_P1;SDS_P2;PMS_P1;PMS_P2;Temp;Humidity;BMP_temperature;BMP_pressure;BME280_temperature;BME280_humidity;BME280_pressure;Samples;Min_cycle;Max_cycle;Signal;HPM_P1;HPM_P2
2022/12/06 00:00:23;;;;;;;;;;;4.40;90.80;;;;;;5033100;28;19917;-79
2022/12/06 00:02:49;;;;;;;;;;;4.40;90.80;;;;;;5033564;28;19920;-79
2022/12/06 00:05:16;;;;;;;;;;;4.30;90.80;;;;;;5034711;28;20063;-79
2022/12/06 00:07:43;;;;;;;;;;;4.30;90.80;;;;;;5026260;28;19928;-78
2022/12/06 00:10:09;;;;;;;;;;;4.30;90.80;;;;;;5013952;28;20318;-78
2022/12/06 00:12:37;;;;;;;;;;;4.30;91.20;;;;;;5031179;28;19917;-78
2022/12/06 00:15:03;;;;;;;;;;;4.30;90.80;;;;;;5036461;28;20337;-78
2022/12/06 00:17:31;;;;;;;;;;;4.20;90.80;;;;;;5021520;28;20429;-79
2022/12/06 00:20:04;;;;;;;;;;;4.20;90.80;;;;;;5011223;28;20081;-79
2022/12/06 00:22:33;;;;;;;;;;;4.20;90.80;;;;;;5027023;28;19921;-79
2022/12/06 00:25:29;;;;;;;;;;;4.20;90.80;;;;;;5005623;28;20128;-79
2022/12/06 00:27:54;;;;;;;;;;;4.10;90.80;;;;;;5063769;28;19917;-77
2022/12/06 00:30:20;;;;;;;;;;;4.10;90.80;;;;;;5047144;28;19931;-76
2022/12/06 00:32:45;;;;;;;;;;;4.00;90.80;;;;;;5030450;28;20058;-78
2022/12/06 00:35:11;;;;;;;;;;;4.00;91.20;;;;;;5044441;28;19921;-79
2022/12/06 00:37:37;;;;;;;;;;;4.00;90.80;;;;;;5042091;28;19925;-78
2022/12/06 00:40:02;;;;;;;;;;;4.00;90.90;;;;;;5038750;28;20538;-79
2022/12/06 00:42:28;;;;;;;;;;;3.90;90.80;;;;;;5027168;28;19931;-79
2022/12/06 00:44:54;;;;;;;;;;;3.90;90.80;;;;;;5020449;28;20004;-78
2022/12/06 00:47:19;;;;;;;;;;;3.90;90.80;;;;;;5043951;28;19917;-79
2022/12/06 00:49:45;;;;;;;;;;;3.80;90.80;;;;;;5009320;28;20394;-78
2022/12/06 00:52:11;;;;;;;;;;;3.80;90.90;;;;;;5046831;28;19991;-79
2022/12/06 00:54:36;;;;;;;;;;;3.80;90.90;;;;;;5051344;28;19928;-78
2022/12/06 00:57:02;;;;;;;;;;;3.80;90.90;;;;;;5042796;28;19917;-77
2022/12/06 00:59:28;;;;;;;;;;;3.70;90.80;;;;;;5042171;28;19958;-78
2022/12/06 01:01:53;;;;;;;;;;;3.70;90.90;;;;;;5060879;28;19963;-78
2022/12/06 01:04:19;;;;;;;;;;;3.70;90.90;;;;;;5043364;28;20009;-78
2022/12/06 01:06:44;;;;;;;;;;;3.60;90.90;;;;;;5044650;28;19920;-78
2022/12/06 01:09:10;;;;;;;;;;;3.60;90.90;;;;;;5031960;28;19956;-78
2022/12/06 01:11:36;;;;;;;;;;;3.60;90.90;;;;;;5038283;28;20800;-78
2022/12/06 01:14:02;;;;;;;;;;;3.50;90.90;;;;;;5038856;28;19935;-78
2022/12/06 01:16:28;;;;;;;;;;;3.50;90.90;;;;;;5040084;28;19954;-79
2022/12/06 01:18:56;;;;;;;;;;;3.50;90.90;;;;;;5039818;28;19949;-78
2022/12/06 01:21:22;;;;;;;;;;;3.50;90.90;;;;;;5057622;28;19923;-78
2022/12/06 01:23:47;;;;;;;;;;;3.60;91.00;;;;;;5049047;28;20458;-77
2022/12/06 01:26:14;;;;;;;;;;;3.60;91.00;;;;;;5043256;28;19921;-78
2022/12/06 01:28:39;;;;;;;;;;;3.50;91.00;;;;;;5048796;28;19917;-77
2022/12/06 01:31:05;;;;;;;;;;;3.50;90.90;;;;;;5047918;28;19987;-78
2022/12/06 01:33:31;;;;;;;;;;;3.50;91.00;;;;;;5037792;28;20008;-78
2022/12/06 01:35:56;;;;;;;;;;;3.50;91.00;;;;;;5031784;28;20008;-78
2022/12/06 01:38:22;;;;;;;;;;;3.50;91.00;;;;;;5035434;28;19921;-79
2022/12/06 01:40:48;;;;;;;;;;;3.60;91.00;;;;;;5038883;28;20600;-78
2022/12/06 01:43:32;;;;;;;;;;;3.60;91.00;;;;;;5003957;28;19917;-78
2022/12/06 01:45:58;;;;;;;;;;;3.60;91.00;;;;;;5036771;28;19947;-77
2022/12/06 01:48:24;;;;;;;;;;;3.60;91.00;;;;;;5016416;28;19921;-78
2022/12/06 01:50:50;;;;;;;;;;;3.60;91.00;;;;;;5037977;28;19920;-78
2022/12/06 01:53:17;;;;;;;;;;;3.60;91.00;;;;;;5035883;28;20007;-78
2022/12/06 01:55:42;;;;;;;;;;;3.70;91.00;;;;;;5026897;28;19940;-76
2022/12/06 01:58:11;;;;;;;;;;;3.70;91.00;;;;;;5056687;28;19925;-78
2022/12/06 02:00:37;;;;;;;;;;;3.70;91.00;;;;;;5045772;28;20425;-78
2022/12/06 02:03:03;;;;;;;;;;;3.70;91.00;;;;;;5038327;28;20014;-78
2022/12/06 02:05:29;;;;;;;;;;;3.70;91.00;;;;;;5024071;28;19932;-78
2022/12/06 02:07:54;;;;;;;;;;;3.80;91.00;;;;;;5038862;28;20297;-78
2022/12/06 02:10:20;;;;;;;;;;;3.80;91.00;;;;;;5044449;28;19952;-78
2022/12/06 02:12:47;;;;;;;;;;;3.80;91.00;;;;;;5026149;28;20357;-77
2022/12/06 02:15:12;;;;;;;;;;;3.80;91.00;;;;;;5037218;28;19947;-78
2022/12/06 02:17:38;;;;;;;;;;;3.80;91.00;;;;;;5024071;28;19921;-78
2022/12/06 02:20:09;;;;;;;;;;;3.80;91.00;;;;;;5036769;28;20489;-78
2022/12/06 02:22:35;;;;;;;;;;;3.80;91.00;;;;;;5037597;28;19918;-78
2022/12/06 02:25:16;;;;;;;;;;;3.80;91.00;;;;;;5036405;28;19924;-76
2022/12/06 02:28:00;;;;;;;;;;;3.80;91.00;;;;;;5044802;28;19917;-78
2022/12/06 02:30:35;;;;;;;;;;;3.90;91.00;;;;;;5040069;28;19921;-77
2022/12/06 02:33:05;;;;;;;;;;;3.90;91.00;;;;;;5039781;28;20290;-76
2022/12/06 02:35:34;;;;;;;;;;;3.90;91.00;;;;;;5018981;28;20481;-78
2022/12/06 02:38:26;;;;;;;;;;;3.90;91.00;;;;;;5033647;28;19921;-78
2022/12/06 02:40:57;;;;;;;;;;;3.90;91.00;;;;;;5002014;28;20427;-78
2022/12/06 02:43:24;;;;;;;;;;;4.00;91.00;;;;;;5010683;28;19921;-78
2022/12/06 02:45:54;;;;;;;;;;;4.00;91.00;;;;;;4994061;28;19917;-78
2022/12/06 02:48:29;;;;;;;;;;;4.00;91.00;;;;;;5020138;28;20080;-79
2022/12/06 02:50:58;;;;;;;;;;;4.00;91.00;;;;;;5011081;28;20016;-78
2022/12/06 02:53:25;;;;;;;;;;;4.00;91.00;;;;;;5029649;28;19932;-76
2022/12/06 02:55:50;;;;;;;;;;;4.00;91.00;;;;;;5039309;28;20833;-78
2022/12/06 02:58:16;;;;;;;;;;;4.00;91.00;;;;;;5041446;28;19965;-78
2022/12/06 03:00:42;;;;;;;;;;;4.00;91.00;;;;;;5036501;28;19925;-77
2022/12/06 03:03:08;;;;;;;;;;;4.10;91.00;;;;;;5012186;28;19923;-78
2022/12/06 03:05:57;;;;;;;;;;;4.00;91.00;;;;;;5038058;28;19980;-78
2022/12/06 03:08:27;;;;;;;;;;;4.10;91.00;;;;;;5021598;28;19925;-78
2022/12/06 03:10:55;;;;;;;;;;;4.10;91.00;;;;;;5038636;28;19960;-78
2022/12/06 03:13:33;;;;;;;;;;;4.10;91.00;;;;;;5022019;28;20390;-78
2022/12/06 03:16:03;;;;;;;;;;;4.10;91.00;;;;;;5027941;28;20093;-79
2022/12/06 03:18:31;;;;;;;;;;;4.10;91.00;;;;;;5027299;28;19925;-79
2022/12/06 03:21:04;;;;;;;;;;;4.20;91.00;;;;;;5036450;28;19929;-78
2022/12/06 03:23:31;;;;;;;;;;;4.10;91.00;;;;;;5043609;28;19927;-78
2022/12/06 03:25:57;;;;;;;;;;;4.10;90.90;;;;;;5042021;28;19927;-78
2022/12/06 03:28:23;;;;;;;;;;;4.20;91.00;;;;;;5026790;28;19921;-78
2022/12/06 03:30:49;;;;;;;;;;;4.20;91.00;;;;;;5039714;28;19982;-77
2022/12/06 03:33:14;;;;;;;;;;;4.20;91.00;;;;;;5023787;28;20009;-77
2022/12/06 03:35:40;;;;;;;;;;;4.20;91.00;;;;;;5022777;28;20378;-78
2022/12/06 03:38:08;;;;;;;;;;;4.20;91.00;;;;;;5034167;28;20319;-78
2022/12/06 03:40:40;;;;;;;;;;;4.20;90.90;;;;;;5039987;28;19917;-78
2022/12/06 03:43:06;;;;;;;;;;;4.20;90.90;;;;;;5041364;28;20007;-78
2022/12/06 03:45:35;;;;;;;;;;;4.30;91.00;;;;;;5037947;28;19972;-79
2022/12/06 03:48:02;;;;;;;;;;;4.30;91.00;;;;;;5021155;28;19917;-77
2022/12/06 03:50:28;;;;;;;;;;;4.30;90.90;;;;;;5035057;28;19933;-79
2022/12/06 03:52:56;;;;;;;;;;;4.30;90.90;;;;;;5040897;28;19921;-78
2022/12/06 03:55:23;;;;;;;;;;;4.30;90.90;;;;;;5022481;28;19921;-78
2022/12/06 03:57:48;;;;;;;;;;;4.30;90.90;;;;;;5048939;28;20395;-79
2022/12/06 04:00:15;;;;;;;;;;;4.40;91.00;;;;;;5034150;28;19921;-78
2022/12/06 04:02:41;;;;;;;;;;;4.40;91.00;;;;;;5016042;28;19925;-78
2022/12/06 04:05:07;;;;;;;;;;;4.40;90.90;;;;;;5006500;28;19924;-79
2022/12/06 04:07:35;;;;;;;;;;;4.40;91.00;;;;;;5010792;28;20337;-78
2022/12/06 04:10:02;;;;;;;;;;;4.40;90.90;;;;;;5017689;28;19923;-77
2022/12/06 04:15:15;;;;;;;;;;;4.40;90.90;;;;;;5025926;28;19936;-78
2022/12/06 04:23:16;;;;;;;;;;;4.40;90.90;;;;;;5043730;28;19928;-78
2022/12/06 04:25:41;;;;;;;;;;;4.50;90.90;;;;;;5053146;28;19917;-78
2022/12/06 04:39:04;;;;;;;;;;;4.50;90.90;;;;;;5041289;28;19923;-77
2022/12/06 04:44:14;;;;;;;;;;;4.50;90.90;;;;;;5041201;28;19951;-77
2022/12/06 04:46:39;;;;;;;;;;;4.60;90.90;;;;;;5047357;28;19917;-77
2022/12/06 04:49:05;;;;;;;;;;;4.60;90.90;;;;;;5043412;28;20442;-79
2022/12/06 04:51:30;;;;;;;;;;;4.60;90.90;;;;;;5047080;28;19913;-78
2022/12/06 04:53:56;;;;;;;;;;;4.60;90.90;;;;;;5048899;28;19928;-76
2022/12/06 04:56:22;;;;;;;;;;;4.60;90.90;;;;;;5051350;28;19921;-77
2022/12/06 04:58:47;;;;;;;;;;;4.60;90.90;;;;;;5051557;28;20018;-77
2022/12/06 05:01:12;;;;;;;;;;;4.60;90.90;;;;;;5051934;28;19932;-77
2022/12/06 05:03:38;;;;;;;;;;;4.60;90.90;;;;;;5055023;28;19924;-76
2022/12/06 05:06:04;;;;;;;;;;;4.60;90.90;;;;;;5052688;28;19921;-78
2022/12/06 05:08:29;;;;;;;;;;;4.70;90.90;;;;;;5053060;28;19921;-77
2022/12/06 05:10:55;;;;;;;;;;;4.60;90.90;;;;;;5066830;28;19921;-76
2022/12/06 05:13:20;;;;;;;;;;;4.60;90.90;;;;;;5055674;28;19931;-77
2022/12/06 05:15:49;;;;;;;;;;;4.70;90.90;;;;;;5072710;28;19959;-78
2022/12/06 05:18:15;;;;;;;;;;;4.70;90.90;;;;;;5054982;28;19935;-77
2022/12/06 05:20:40;;;;;;;;;;;4.60;90.80;;;;;;5074675;28;19921;-76
2022/12/06 05:23:06;;;;;;;;;;;4.60;90.80;;;;;;5055280;28;19970;-77
2022/12/06 05:25:31;;;;;;;;;;;4.70;90.90;;;;;;5049814;28;19917;-77
2022/12/06 05:27:57;;;;;;;;;;;4.70;90.90;;;;;;5074526;28;19927;-76
2022/12/06 05:30:22;;;;;;;;;;;4.70;90.90;;;;;;5061426;28;20010;-78
2022/12/06 05:32:48;;;;;;;;;;;4.70;90.90;;;;;;5073357;28;20313;-77
2022/12/06 05:35:13;;;;;;;;;;;4.70;90.90;;;;;;5068512;28;20025;-75
2022/12/06 05:37:39;;;;;;;;;;;4.70;90.90;;;;;;5059431;28;19925;-78
2022/12/06 05:40:05;;;;;;;;;;;4.70;90.90;;;;;;5049546;28;20426;-78
2022/12/06 05:42:30;;;;;;;;;;;4.70;90.90;;;;;;5052407;28;20421;-76
2022/12/06 05:44:56;;;;;;;;;;;4.70;90.90;;;;;;5058119;28;19912;-75
2022/12/06 05:47:21;;;;;;;;;;;4.70;90.90;;;;;;5065468;28;19923;-78
2022/12/06 05:49:46;;;;;;;;;;;4.70;90.90;;;;;;5067361;28;19948;-76
2022/12/06 05:52:12;;;;;;;;;;;4.70;90.90;;;;;;5065123;28;19924;-76
2022/12/06 05:54:38;;;;;;;;;;;4.70;90.90;;;;;;5067987;28;19930;-78
2022/12/06 05:57:03;;;;;;;;;;;4.70;90.90;;;;;;5026967;28;19916;-76
2022/12/06 05:59:29;;;;;;;;;;;4.70;90.90;;;;;;5068702;28;19931;-77
2022/12/06 06:01:54;;;;;;;;;;;4.70;90.90;;;;;;5071342;28;19923;-78
2022/12/06 06:04:20;;;;;;;;;;;4.70;90.90;;;;;;5063847;28;20603;-78
2022/12/06 06:06:45;;;;;;;;;;;4.70;90.90;;;;;;5055092;28;20732;-76
2022/12/06 06:09:11;;;;;;;;;;;4.70;90.90;;;;;;5061071;28;20402;-79
2022/12/06 06:11:36;;;;;;;;;;;4.70;90.90;;;;;;5067909;28;19935;-76
2022/12/06 06:14:01;;;;;;;;;;;4.70;90.80;;;;;;5067468;28;20471;-76
2022/12/06 06:16:27;;;;;;;;;;;4.70;90.80;;;;;;5047856;28;19917;-78
2022/12/06 06:18:53;;;;;;;;;;;4.70;90.80;;;;;;5067884;28;19920;-77
2022/12/06 06:21:18;;;;;;;;;;;4.70;90.90;;;;;;5065797;28;19917;-75
2022/12/06 06:23:44;;;;;;;;;;;4.70;90.80;;;;;;5070028;28;19916;-77
2022/12/06 06:26:10;;;;;;;;;;;4.70;90.80;;;;;;5067520;28;19920;-75
2022/12/06 06:28:36;;;;;;;;;;;4.70;90.80;;;;;;5037434;28;19917;-77
2022/12/06 06:31:02;;;;;;;;;;;4.70;90.80;;;;;;5052163;28;19927;-75
2022/12/06 06:33:28;;;;;;;;;;;4.70;90.80;;;;;;5054880;28;19925;-76
2022/12/06 06:35:53;;;;;;;;;;;4.70;90.80;;;;;;5077825;28;19927;-77
2022/12/06 06:38:19;;;;;;;;;;;4.70;90.80;;;;;;5072354;28;20591;-78
2022/12/06 06:40:44;;;;;;;;;;;4.70;90.80;;;;;;5077155;28;19916;-77
2022/12/06 06:43:19;;;;;;;;;;;4.70;90.80;;;;;;5059303;28;19920;-76
2022/12/06 06:45:49;;;;;;;;;;;4.70;90.80;;;;;;5073019;28;20420;-77
2022/12/06 06:48:15;;;;;;;;;;;4.70;90.90;;;;;;5051045;28;19917;-76
2022/12/06 06:50:40;;;;;;;;;;;4.70;90.90;;;;;;5066518;28;19928;-76
2022/12/06 06:53:06;;;;;;;;;;;4.70;90.90;;;;;;5070168;28;19916;-77
2022/12/06 06:55:31;;;;;;;;;;;4.70;90.90;;;;;;5052342;28;19917;-77
2022/12/06 06:57:57;;;;;;;;;;;4.70;90.90;;;;;;5058565;28;19921;-77
2022/12/06 07:00:23;;;;;;;;;;;4.70;90.90;;;;;;5058032;28;20310;-78
2022/12/06 07:02:48;;;;;;;;;;;4.70;90.90;;;;;;5072095;28;19917;-77
2022/12/06 07:05:14;;;;;;;;;;;4.70;90.90;;;;;;5071439;28;19944;-78
2022/12/06 07:07:39;;;;;;;;;;;4.70;90.90;;;;;;5073973;28;19920;-76
2022/12/06 07:10:05;;;;;;;;;;;4.70;90.90;;;;;;5074984;28;19924;-77
2022/12/06 07:12:30;;;;;;;;;;;4.70;90.90;;;;;;5070115;28;19940;-78
2022/12/06 07:14:56;;;;;;;;;;;4.70;90.90;;;;;;5071096;28;20034;-75
2022/12/06 07:17:23;;;;;;;;;;;4.70;90.90;;;;;;5073943;28;19936;-77
2022/12/06 07:19:48;;;;;;;;;;;4.70;90.90;;;;;;5075777;28;19950;-78
2022/12/06 07:22:14;;;;;;;;;;;4.70;90.90;;;;;;5067917;28;20275;-78
2022/12/06 07:24:40;;;;;;;;;;;4.70;90.90;;;;;;5068990;28;20026;-76
2022/12/06 07:27:05;;;;;;;;;;;4.70;90.90;;;;;;5075226;28;19998;-75
2022/12/06 07:29:31;;;;;;;;;;;4.70;90.90;;;;;;5073914;28;19924;-78
2022/12/06 07:31:56;;;;;;;;;;;4.70;90.90;;;;;;5056680;28;19912;-78
2022/12/06 07:34:22;;;;;;;;;;;4.70;90.80;;;;;;5071510;28;19929;-76
2022/12/06 07:36:47;;;;;;;;;;;4.80;90.90;;;;;;5056522;28;19939;-78
2022/12/06 07:39:13;;;;;;;;;;;4.80;90.90;;;;;;5053318;28;19921;-77
2022/12/06 07:47:11;;;;;;;;;;;4.80;90.90;;;;;;5070105;28;19992;-78
2022/12/06 07:49:36;;;;;;;;;;;4.70;90.80;;;;;;5055341;28;20117;-78
2022/12/06 07:52:02;;;;;;;;;;;4.80;90.80;;;;;;5071386;28;19912;-77
2022/12/06 07:54:27;;;;;;;;;;;4.70;90.80;;;;;;5068401;28;19932;-78
2022/12/06 07:56:55;;;;;;;;;;;4.70;90.80;;;;;;5059356;28;19921;-77
2022/12/06 07:59:20;;;;;;;;;;;4.70;90.80;;;;;;5051395;28;20592;-78
2022/12/06 08:01:46;;;;;;;;;;;4.70;90.80;;;;;;5073181;28;19938;-77
2022/12/06 08:04:11;;;;;;;;;;;4.70;90.80;;;;;;5053210;28;19919;-77
2022/12/06 08:06:37;;;;;;;;;;;4.70;91.00;;;;;;5066814;28;21227;-78
2022/12/06 08:09:03;;;;;;;;;;;4.70;90.80;;;;;;5053679;28;19921;-76
2022/12/06 08:11:28;;;;;;;;;;;4.70;90.80;;;;;;5067780;28;20006;-77
2022/12/06 08:13:54;;;;;;;;;;;4.70;90.80;;;;;;5051073;28;19932;-78
2022/12/06 08:16:19;;;;;;;;;;;4.70;90.80;;;;;;5048255;28;19976;-78
2022/12/06 08:18:45;;;;;;;;;;;4.70;90.80;;;;;;5049349;28;19973;-77
2022/12/06 08:21:10;;;;;;;;;;;4.70;90.80;;;;;;5065577;28;19931;-79
2022/12/06 08:23:36;;;;;;;;;;;4.60;90.80;;;;;;5061603;28;19994;-78
2022/12/06 08:26:02;;;;;;;;;;;4.70;90.80;;;;;;5072839;28;19917;-77
2022/12/06 08:28:28;;;;;;;;;;;4.60;90.90;;;;;;5069596;28;19960;-78
2022/12/06 08:30:54;;;;;;;;;;;4.70;90.90;;;;;;5051794;28;19920;-80
2022/12/06 08:33:20;;;;;;;;;;;4.70;90.90;;;;;;5043826;28;19917;-75
2022/12/06 08:35:47;;;;;;;;;;;4.70;90.90;;;;;;5050053;28;19917;-78
2022/12/06 08:38:12;;;;;;;;;;;4.70;90.90;;;;;;5055619;28;19916;-79
2022/12/06 08:40:38;;;;;;;;;;;4.70;90.90;;;;;;5071292;28;19935;-76
2022/12/06 08:43:03;;;;;;;;;;;4.70;90.90;;;;;;5057474;28;19917;-78
2022/12/06 08:45:29;;;;;;;;;;;4.70;90.90;;;;;;5051163;28;19928;-77
2022/12/06 08:47:54;;;;;;;;;;;4.70;90.90;;;;;;5067687;28;19987;-78
2022/12/06 08:50:20;;;;;;;;;;;4.70;90.90;;;;;;5065588;28;19913;-77
2022/12/06 08:52:45;;;;;;;;;;;4.70;90.90;;;;;;5067113;28;19921;-77
2022/12/06 08:55:10;;;;;;;;;;;4.70;90.90;;;;;;5048695;28;19962;-77
2022/12/06 08:57:36;;;;;;;;;;;4.70;90.90;;;;;;5068783;28;20768;-78
2022/12/06 09:00:02;;;;;;;;;;;4.70;90.90;;;;;;5053817;28;19932;-78
2022/12/06 09:02:28;;;;;;;;;;;4.70;90.80;;;;;;5050846;28;19917;-78
2022/12/06 09:04:54;;;;;;;;;;;4.70;90.90;;;;;;5055411;28;19924;-78
2022/12/06 09:07:21;;;;;;;;;;;4.70;90.80;;;;;;5066766;28;19924;-77
2022/12/06 09:09:47;;;;;;;;;;;4.70;90.80;;;;;;5072092;28;20514;-77
2022/12/06 09:12:12;;;;;;;;;;;4.80;90.90;;;;;;5066840;28;19916;-78
2022/12/06 09:14:38;;;;;;;;;;;4.80;90.90;;;;;;5060953;28;19925;-78
2022/12/06 09:17:04;;;;;;;;;;;4.80;90.90;;;;;;5049596;28;19927;-78
2022/12/06 09:19:30;;;;;;;;;;;4.80;90.90;;;;;;5047167;28;19921;-78
2022/12/06 09:21:55;;;;;;;;;;;4.80;90.90;;;;;;5051349;28;19927;-78
2022/12/06 09:24:21;;;;;;;;;;;4.80;90.90;;;;;;5048455;28;19952;-77
2022/12/06 09:26:47;;;;;;;;;;;4.80;90.90;;;;;;5045137;28;19981;-79
2022/12/06 09:29:12;;;;;;;;;;;4.80;90.80;;;;;;5051221;28;19944;-78
2022/12/06 09:31:39;;;;;;;;;;;4.80;90.80;;;;;;5069957;28;19944;-78
2022/12/06 09:34:05;;;;;;;;;;;4.80;90.80;;;;;;5050673;28;19920;-79
2022/12/06 09:36:30;;;;;;;;;;;4.90;90.90;;;;;;5066818;28;20019;-78
2022/12/06 09:38:59;;;;;;;;;;;4.80;90.80;;;;;;5066475;28;19940;-78
2022/12/06 09:41:42;;;;;;;;;;;4.80;90.80;;;;;;5044534;28;19927;-79
2022/12/06 09:44:11;;;;;;;;;;;4.80;90.80;;;;;;5066926;28;19920;-76
2022/12/06 09:46:37;;;;;;;;;;;4.80;90.80;;;;;;5064606;28;20397;-76
2022/12/06 09:49:15;;;;;;;;;;;4.80;90.80;;;;;;5065680;28;19925;-77
2022/12/06 09:51:59;;;;;;;;;;;4.80;90.80;;;;;;5070539;28;19924;-77
2022/12/06 09:54:29;;;;;;;;;;;4.80;90.80;;;;;;5037397;28;19944;-78
2022/12/06 09:57:10;;;;;;;;;;;4.80;90.80;;;;;;5067447;28;19969;-76
2022/12/06 09:59:38;;;;;;;;;;;4.80;90.80;;;;;;5048121;28;20011;-77
2022/12/06 10:02:06;;;;;;;;;;;4.80;90.80;;;;;;5069266;28;19920;-79
2022/12/06 10:04:32;;;;;;;;;;;4.80;90.80;;;;;;5064993;28;19943;-78
2022/12/06 10:06:57;;;;;;;;;;;4.80;90.80;;;;;;5058170;28;19928;-78
2022/12/06 10:09:38;;;;;;;;;;;4.80;90.80;;;;;;5046436;28;19928;-78
2022/12/06 10:12:13;;;;;;;;;;;4.80;90.80;;;;;;5049850;28;20119;-77
2022/12/06 10:14:44;;;;;;;;;;;4.80;90.80;;;;;;5046934;28;19925;-77
2022/12/06 10:17:23;;;;;;;;;;;4.80;90.80;;;;;;5047841;28;19976;-77
2022/12/06 10:20:12;;;;;;;;;;;4.80;90.80;;;;;;5046661;28;20004;-76
2022/12/06 10:22:40;;;;;;;;;;;4.80;90.80;;;;;;5044493;28;19948;-77
2022/12/06 10:25:10;;;;;;;;;;;4.80;90.80;;;;;;5062507;28;20642;-76
2022/12/06 10:27:36;;;;;;;;;;;4.90;90.90;;;;;;5050440;28;20578;-76
2022/12/06 10:30:09;;;;;;;;;;;4.90;90.80;;;;;;5064325;28;19923;-75
2022/12/06 10:32:38;;;;;;;;;;;4.90;90.80;;;;;;5051649;28;19942;-77
2022/12/06 10:35:23;;;;;;;;;;;4.90;90.80;;;;;;5061415;28;19929;-78
2022/12/06 10:37:54;;;;;;;;;;;4.90;90.80;;;;;;5053375;28;19917;-78
2022/12/06 10:40:24;;;;;;;;;;;4.90;90.80;;;;;;5064964;28;19928;-77
2022/12/06 10:42:53;;;;;;;;;;;4.90;90.80;;;;;;5038533;28;19917;-78
2022/12/06 10:48:06;;;;;;;;;;;4.90;90.80;;;;;;5071500;28;19935;-78
2022/12/06 10:50:32;;;;;;;;;;;5.00;90.80;;;;;;5066932;28;19917;-77
2022/12/06 10:53:02;;;;;;;;;;;5.00;90.80;;;;;;5053885;28;20583;-78
2022/12/06 10:55:32;;;;;;;;;;;5.00;90.80;;;;;;5052987;28;20019;-78
2022/12/06 10:57:58;;;;;;;;;;;5.00;90.80;;;;;;5031662;28;20192;-79
2022/12/06 11:00:27;;;;;;;;;;;5.00;90.80;;;;;;5051224;28;19921;-78
2022/12/06 11:02:52;;;;;;;;;;;5.00;90.80;;;;;;5070054;28;19917;-78
2022/12/06 11:05:20;;;;;;;;;;;5.00;90.80;;;;;;5067682;28;19935;-77
2022/12/06 11:07:47;;;;;;;;;;;5.00;90.80;;;;;;5073573;28;19916;-78
2022/12/06 11:10:19;;;;;;;;;;;5.00;90.70;;;;;;5069443;28;19936;-77
2022/12/06 11:12:44;;;;;;;;;;;5.10;90.80;;;;;;5057332;28;19916;-78
2022/12/06 11:15:17;;;;;;;;;;;5.10;90.70;;;;;;5068484;28;19968;-76
2022/12/06 11:17:46;;;;;;;;;;;5.10;90.70;;;;;;5053094;28;19993;-78
2022/12/06 11:20:21;;;;;;;;;;;5.10;90.70;;;;;;5037923;28;19951;-77
2022/12/06 11:22:49;;;;;;;;;;;5.10;90.70;;;;;;5069061;28;19917;-78
2022/12/06 11:25:33;;;;;;;;;;;5.10;90.70;;;;;;5070464;28;19917;-76
2022/12/06 11:28:12;;;;;;;;;;;5.10;90.70;;;;;;5056925;28;19917;-78
2022/12/06 11:30:37;;;;;;;;;;;5.10;90.70;;;;;;5066370;28;19924;-78
2022/12/06 11:33:03;;;;;;;;;;;5.20;90.70;;;;;;5072430;28;20049;-78
2022/12/06 11:35:28;;;;;;;;;;;5.20;90.70;;;;;;5050748;28;21443;-78
2022/12/06 11:37:55;;;;;;;;;;;5.20;90.70;;;;;;5070040;28;19917;-76
2022/12/06 11:40:47;;;;;;;;;;;5.20;90.70;;;;;;5050272;28;19996;-78
2022/12/06 11:43:17;;;;;;;;;;;5.20;90.70;;;;;;5067465;28;19994;-78
2022/12/06 11:45:44;;;;;;;;;;;5.20;90.70;;;;;;5069424;28;19948;-78
2022/12/06 11:48:16;;;;;;;;;;;5.20;90.70;;;;;;5064036;28;19917;-78
2022/12/06 11:50:41;;;;;;;;;;;5.20;90.70;;;;;;5055676;28;20092;-78
2022/12/06 11:53:26;;;;;;;;;;;5.20;90.70;;;;;;5052938;28;19912;-77
2022/12/06 11:55:52;;;;;;;;;;;5.20;90.70;;;;;;5067010;28;19921;-78
2022/12/06 11:58:25;;;;;;;;;;;5.30;90.70;;;;;;5045625;28;19946;-78
2022/12/06 12:00:54;;;;;;;;;;;5.30;90.70;;;;;;5071160;28;19920;-77
2022/12/06 12:03:27;;;;;;;;;;;5.30;90.70;;;;;;5053448;28;20390;-77
2022/12/06 12:06:05;;;;;;;;;;;5.30;90.70;;;;;;5052224;28;19916;-78
2022/12/06 12:08:30;;;;;;;;;;;5.30;90.70;;;;;;5032706;28;19917;-79
2022/12/06 12:10:56;;;;;;;;;;;5.30;90.70;;;;;;5052967;28;19927;-78
2022/12/06 12:16:10;;;;;;;;;;;5.30;90.70;;;;;;5063486;28;20440;-78
2022/12/06 12:18:36;;;;;;;;;;;5.30;90.70;;;;;;5045986;28;19915;-77
2022/12/06 12:21:02;;;;;;;;;;;5.30;90.70;;;;;;5034560;28;19905;-77
2022/12/06 12:23:29;;;;;;;;;;;5.40;90.70;;;;;;5073631;28;19931;-77
2022/12/06 12:25:58;;;;;;;;;;;5.30;90.70;;;;;;5046741;28;19928;-79
2022/12/06 12:28:24;;;;;;;;;;;5.30;90.70;;;;;;5070396;28;19916;-77
2022/12/06 12:30:57;;;;;;;;;;;5.30;90.70;;;;;;5057527;28;19920;-79
2022/12/06 12:33:23;;;;;;;;;;;5.40;90.70;;;;;;5067463;28;19972;-76
2022/12/06 12:35:54;;;;;;;;;;;5.40;90.60;;;;;;5076630;28;19916;-78
2022/12/06 12:38:27;;;;;;;;;;;5.40;90.60;;;;;;5056838;28;19925;-78
2022/12/06 12:40:57;;;;;;;;;;;5.40;90.60;;;;;;5076140;28;19927;-78
2022/12/06 12:43:23;;;;;;;;;;;5.40;90.60;;;;;;5061100;28;19924;-76
2022/12/06 12:46:02;;;;;;;;;;;5.40;90.60;;;;;;5056209;28;19979;-79
2022/12/06 12:48:28;;;;;;;;;;;5.40;90.60;;;;;;5058096;28;19963;-77
2022/12/06 12:50:54;;;;;;;;;;;5.50;90.70;;;;;;5077707;28;19972;-78
2022/12/06 12:53:27;;;;;;;;;;;5.50;90.60;;;;;;5071722;28;20028;-76
2022/12/06 12:56:03;;;;;;;;;;;5.50;90.70;;;;;;5051425;28;20402;-78
2022/12/06 12:58:29;;;;;;;;;;;5.40;90.60;;;;;;5070773;28;20405;-78
2022/12/06 13:00:54;;;;;;;;;;;5.50;90.70;;;;;;5058585;28;19945;-79
2022/12/06 13:03:20;;;;;;;;;;;5.50;90.60;;;;;;5043596;28;19917;-76
2022/12/06 13:05:46;;;;;;;;;;;5.50;90.60;;;;;;5052352;28;19939;-77
2022/12/06 13:08:12;;;;;;;;;;;5.50;90.60;;;;;;5034010;28;19921;-76
2022/12/06 13:10:38;;;;;;;;;;;5.50;90.60;;;;;;5051588;28;19935;-78
2022/12/06 13:13:09;;;;;;;;;;;5.50;90.60;;;;;;5056322;28;19908;-78
2022/12/06 13:15:48;;;;;;;;;;;5.50;90.60;;;;;;5052416;28;19940;-77
2022/12/06 13:18:21;;;;;;;;;;;5.50;90.60;;;;;;5072168;28;19923;-78
2022/12/06 13:20:47;;;;;;;;;;;5.40;90.60;;;;;;5068928;28;19928;-78
2022/12/06 13:23:13;;;;;;;;;;;5.50;90.60;;;;;;5054903;28;19920;-78
2022/12/06 13:25:39;;;;;;;;;;;5.40;90.60;;;;;;5066963;28;20576;-77
2022/12/06 13:28:05;;;;;;;;;;;5.40;90.60;;;;;;5054743;28;19927;-78
2022/12/06 13:30:32;;;;;;;;;;;5.40;90.60;;;;;;5070857;28;19958;-78
2022/12/06 13:32:57;;;;;;;;;;;5.50;90.70;;;;;;5056377;28;19927;-79
2022/12/06 13:35:26;;;;;;;;;;;5.40;90.60;;;;;;5053125;28;20473;-79
2022/12/06 13:38:00;;;;;;;;;;;5.40;90.60;;;;;;5054809;28;19917;-78
2022/12/06 13:40:31;;;;;;;;;;;5.40;90.60;;;;;;5049719;28;19920;-77
2022/12/06 13:42:57;;;;;;;;;;;5.40;90.60;;;;;;5051733;28;19923;-78
2022/12/06 13:45:35;;;;;;;;;;;5.50;90.60;;;;;;5026895;28;19920;-76
2022/12/06 13:48:00;;;;;;;;;;;5.50;90.60;;;;;;5052817;28;19923;-79
2022/12/06 13:50:26;;;;;;;;;;;5.40;90.60;;;;;;5067473;28;19921;-78
2022/12/06 13:52:51;;;;;;;;;;;5.40;90.60;;;;;;5072914;28;19964;-79
2022/12/06 13:55:40;;;;;;;;;;;5.40;90.60;;;;;;5058360;28;19927;-76
2022/12/06 13:58:05;;;;;;;;;;;5.40;90.60;;;;;;5061989;28;19984;-78
2022/12/06 14:00:32;;;;;;;;;;;5.40;90.60;;;;;;5062401;28;20302;-78
2022/12/06 14:03:01;;;;;;;;;;;5.40;90.60;;;;;;5055834;28;19920;-79
2022/12/06 14:05:45;;;;;;;;;;;5.40;90.60;;;;;;5048579;28;19955;-78
2022/12/06 14:08:11;;;;;;;;;;;5.40;90.60;;;;;;5052458;28;19913;-78
2022/12/06 14:10:37;;;;;;;;;;;5.40;90.60;;;;;;5032639;28;19952;-78
2022/12/06 14:13:03;;;;;;;;;;;5.40;90.60;;;;;;5050159;28;19917;-77
2022/12/06 14:15:28;;;;;;;;;;;5.40;90.60;;;;;;5030139;28;20119;-77
2022/12/06 14:17:54;;;;;;;;;;;5.30;90.60;;;;;;5046611;28;19921;-77
2022/12/06 14:20:20;;;;;;;;;;;5.40;90.60;;;;;;5059069;28;19992;-76
2022/12/06 14:22:46;;;;;;;;;;;5.30;90.60;;;;;;5042427;28;19920;-78
2022/12/06 14:25:14;;;;;;;;;;;5.30;90.60;;;;;;5057190;28;19919;-78
2022/12/06 14:27:44;;;;;;;;;;;5.30;90.60;;;;;;5075866;28;19984;-76
2022/12/06 14:30:12;;;;;;;;;;;5.30;90.60;;;;;;5055281;28;20739;-77
2022/12/06 14:32:42;;;;;;;;;;;5.30;90.60;;;;;;5046551;28;19925;-78
2022/12/06 14:35:40;;;;;;;;;;;5.30;90.60;;;;;;5044692;28;19925;-77
2022/12/06 14:38:21;;;;;;;;;;;5.30;90.60;;;;;;5014846;28;19913;-77
2022/12/06 14:43:31;;;;;;;;;;;5.30;90.60;;;;;;5069206;28;19993;-77
2022/12/06 14:45:59;;;;;;;;;;;5.30;90.60;;;;;;5056227;28;19917;-78
2022/12/06 14:48:25;;;;;;;;;;;5.30;90.60;;;;;;5057376;28;19916;-78
2022/12/06 14:50:51;;;;;;;;;;;5.30;90.60;;;;;;5056270;28;19931;-76
2022/12/06 14:53:36;;;;;;;;;;;5.30;90.60;;;;;;5057263;28;19947;-80
2022/12/06 14:56:02;;;;;;;;;;;5.20;90.60;;;;;;5059482;28;19932;-76
2022/12/06 14:58:38;;;;;;;;;;;5.30;90.60;;;;;;5062904;28;19920;-79
2022/12/06 15:01:11;;;;;;;;;;;5.20;90.60;;;;;;5053057;28;19920;-79
2022/12/06 15:03:37;;;;;;;;;;;5.20;90.60;;;;;;5056941;28;19921;-78
2022/12/06 15:06:08;;;;;;;;;;;5.20;90.60;;;;;;5070127;28;20285;-78
2022/12/06 15:08:34;;;;;;;;;;;5.20;90.60;;;;;;5071377;28;19916;-78
2022/12/06 15:11:01;;;;;;;;;;;5.20;90.60;;;;;;5061405;28;19935;-77